Griddlers Books

-50%

Griddlers Black and White, Vol. 25

Pages:108
Puzzles: 160
Options: PDF Paperback
This is electronic delivered item in form of PDF file.
Original price: $9.90
Price: $4.95
Pay with Bluesnap
This item is available only in following countries:
Price: 0.00 USD
Shipping: USD
Total: USD
The paperback books are printed by Createspace and distributed by Amazon. The price is suggested list price and actual price may be different.

United states

Price: $17.00
Amazon US

United Kingdom

Price: GBP10.00
Amazon UK

Printing

When printing a book, there are a few settings that may need changing in Acrobat Reader. After clicking 'Print', make sure the following are set:

1) Page Scaling: None
2) Auto-Rotate and Center: Checked
3) Choose Paper Source by PDF page size: Unchecked
In PostScript Printers: Click on Advanced and check Print as Image.

Get Acrobat Reader Acrobat Reader (version 6 or higher) is required for viewing and printing.

This book is sold and delivered by company Amazon. Actual price may be different as shown here. It depends on local tax and actual discount.

Puzzles

ID Description Author Date Size Points Solved
2092 On the Meadow Janko 10/27/02 45x30x2 f 34,966
2722 Peace maarten001 12/31/02 20x20x2 f 3,807
2739 Candle slniecko 1/1/03 25x25x2 f 22,569
2936 Gorilla piranha 1/11/03 25x25x2 f 1,836
3244 Shirt tono 2/6/03 25x25x2 f 24,886
4491 Giraffes doritshm 5/15/03 45x39x2 f 52,740
4902 Horse tono 6/9/03 20x20x2 f 2,751
5004 Boxing tono 6/13/03 30x20x2 f 5,925
5239 IKEA tono 7/8/03 35x20x2 f 3,351
5623 Musical Instrument Sax tono 8/12/03 15x20x2 f 1,608
5633 Artichoke elad 8/13/03 40x50x2 f 258,784
5666 Summer Sailing Misty 8/17/03 50x50x2 f 786,691
6199 Halloween Countdown: 26 Days to Go! wiggles 10/5/03 50x50x2 f 18,745
6792 Cat ulka 12/7/03 35x30x2 t 15,870
7090 Numbers FlyingDuck 1/2/04 30x20x2 f 5,346
7957 House Guy 2/24/04 10x15x2 f 464
8015 Rappelling guru7 2/26/04 30x40x2 f 36,815
8274 Wolf guru7 3/8/04 50x50x2 f 75,586
8694 Bratislava New Bridge Ra100 3/24/04 35x25x2 f 13,999
8800 Oil Burner Robyne_Hud 3/30/04 20x30x2 f 16,460
10726 Road Sign: Rocks booglemonster 6/17/04 50x50x2 f 629,399
11138 Fly shalby 7/12/04 20x20x2 f 2,953
11587 Staatsbosbeheer (Dutch Forest Preservation) Logo carootje 7/31/04 40x45x2 f 26,280
11857 Snowcat steveo 8/20/04 35x17x2 f 28,429
11881 Bradshaw Clothes Peg Figure chefmomster2 8/23/04 40x50x2 f 378,206
14834 Owl carootje 12/9/04 25x25x2 t 8,476
15992 Goat bujia 1/13/05 15x20x2 f 762
20454 Have a Light? elimaor 4/7/05 50x30x2 f 168,545
20511 Playing Soccer elimaor 4/8/05 20x30x2 f 32,768
20956 Viking bepklep 4/17/05 45x47x2 f 399,514
20957 Viking bepklep 4/17/05 45x47x2 f 78,339
21656 Ice Cream elimaor 5/4/05 15x15x2 f 1,071
22462 Guitar ik-is-gek 5/22/05 25x10x2 f 37
23456 Moon Faqt 6/24/05 46x50x2 t 477,693
23507 Trophy lucy143 6/26/05 10x15x2 f 176
23578 Gramophone twoznia 6/28/05 20x20x2 f 21,025
23590 Bird on a Wheel solo222 6/28/05 10x10x2 f 124
23894 Stopwatch twoznia 7/8/05 15x20x2 f 15,185
24065 Attack! Szczep 7/14/05 44x50x2 f 17,805
24449 Photo Camera twoznia 7/23/05 20x20x2 f 11,651
24887 Closeup Book Shelf alibaba 8/4/05 44x50x2 f 135,621
25216 Minimalism: Why? twoznia 8/12/05 5x5x2 f 3
25696 Fountain twoznia 8/28/05 20x20x2 f 10,112
25981 Airport Tr4x 9/20/05 35x15x2 f 13,608
26078 Trumpet twoznia 9/23/05 50x20x2 f 13,715
26178 Goofy twoznia 9/28/05 30x40x2 f 95,684
26221 Michael Jordan twoznia 9/30/05 34x25x2 f 12,783
26259 Yabba Dabba Doooo! twoznia 10/2/05 35x50x2 f 418,942
26289 Minimalism: Weight twoznia 10/3/05 5x5x2 f 2
26334 Horse ireneh 10/4/05 45x30x2 f 3,064
26846 Girl with a Hat lichee 10/17/05 50x50x2 f 257,099
27004 Danish Truck Hellas 10/18/05 45x17x2 f 545
27006 Minimalism: Fence twoznia 10/18/05 5x5x2 f 9
28508 Farmer twoznia 12/3/05 45x30x2 f 208,219
28784 Minimalism: Viking twoznia 12/11/05 5x5x2 f 7
29700 Duck twoznia 1/9/06 20x20x2 f 1,722
29919 Black Swan op1 1/15/06 50x50x2 f 31,072
31296 Minimalism: Billiard Ball twoznia 2/28/06 5x5x2 f 1
31315 Minimalism: Bye! kissyrich 3/1/06 5x5x2 f 4
31492 The Michelin Man f1comp 3/8/06 40x50x2 f 437,977
31601 Minimalism: Crab twoznia 3/10/06 5x5x2 f 17
31602 Minimalism: Jar twoznia 3/10/06 5x5x2 f 7
32058 Truck rapa100 3/25/06 30x17x2 f 1,534
32309 Minimalism: Flower _unhuman_ 4/4/06 5x5x2 f 5
33681 Olifant Baby_love84 5/20/06 20x20x2 f 4,581
34450 Scales moher 6/11/06 50x50x2 f 703,115
36832 Cat and Mouse leonita 8/12/06 40x20x2 f 6,294
38293 Three O'clock marlonbraga 9/22/06 15x15x2 f 1,903
39112 Best Friends mmp 10/20/06 35x35x2 f 22,722
39321 Family Portrait hingly 10/26/06 50x50x2 f 693,148
39448 Wave hingly 11/1/06 50x50x2 f 206,607
39548 Teddy Bear tbonneval 11/6/06 30x30x2 f 12,157
40396 Beach Scene gheki 12/1/06 15x15x2 f 695
40421 Baby mustafademirbas 12/3/06 50x50x2 f 598,891
40575 Deer jenny1 12/7/06 40x45x2 f 46,586
40897 Mickey mndjhrmn 12/24/06 50x50x2 f 362,113
41071 They're Gonna Have a Baby! xiayu 12/31/06 35x35x2 f 436,102
41250 Thank You for the Flower mustafademirbas 1/7/07 50x50x2 f 162,304
41268 Love Angel mustafademirbas 1/7/07 50x50x2 f 45,215
41354 Windsurfing twoznia 1/8/07 10x10x2 f 155
41379 Man in the Moon Kyraath 1/9/07 35x35x2 f 252,727
41442 A Night Out jjan 1/10/07 50x30x2 f 196,758
41654 It's Raining marielle 1/16/07 15x15x2 f 336
42859 Japanese Temple xiayu 2/18/07 30x30x2 f 169,562
42860 Shirt xiayu 2/18/07 30x30x2 f 101,856
42910 Fire Hydrant xiayu 2/19/07 20x30x2 f 64,051
43015 Dolphin granulocyt 2/21/07 15x15x2 f 484
43082 Eagle mustafademirbas 2/25/07 50x50x2 f 380,655
43134 Bird hibrahimozer 2/26/07 35x35x2 f 8,913
43518 Panda pendexj 3/11/07 15x15x2 f 1,529
43612 Ranger starch 3/13/07 50x50x2 f 74,727
43743 Motorbike starch 3/15/07 40x15x2 f 3,734
44143 Pooh Oskar 3/28/07 50x50x2 f 1,697,945
44358 Limousine mustafademirbas 4/5/07 50x16x2 f 3,473
44708 Farm House mustafademirbas 4/16/07 50x50x2 f 658,637
45086 Boy with Bird carobeekman 4/26/07 15x15x2 f 2,174
45568 Fish solo222 5/9/07 15x15x2 f 1,107
45570 Speaker solo222 5/9/07 10x10x2 f 74
45599 Dog solo222 5/10/07 10x10x2 f 170
45716 Pram solo222 5/13/07 15x15x2 f 261
45845 Camel hibrahimozer 5/15/07 35x11x2 f 902
45906 Toucan solo222 5/18/07 10x10x2 f 180
45909 Parrot solo222 5/18/07 15x15x2 f 1,375
45953 Cocktail mustafademirbas 5/20/07 50x50x2 f 353,320
46246 Hot Kettle xiayu 5/24/07 15x15x2 f 4,907
46508 Ship starch 6/3/07 50x30x2 f 28,217
46581 Dog gemini 6/4/07 30x30x2 f 58,688
46670 Ducky Toy abrek 6/5/07 35x15x2 f 59,914
46692 Bowling solo222 6/5/07 10x20x2 f 467
46771 Swan solo222 6/8/07 15x15x2 f 125
47000 Bear solo222 6/12/07 15x20x2 f 14,784
47084 Eagle mustafademirbas 6/13/07 50x50x2 f 863,624
47446 Horse mayanas 6/24/07 30x30x2 f 16,118
47496 Spider Lupos 6/25/07 30x30x2 f 82,257
47746 Cherries solo222 7/1/07 15x10x2 f 466
47895 Windmill mustafademirbas 7/5/07 50x50x2 f 2,562,318
48038 Capricorn Lupos 7/9/07 40x40x2 f 93,399
48101 Elephant semdem 7/10/07 40x25x2 f 7,246
48317 Wolf Lupos 7/17/07 40x45x2 f 85,990
48377 Swing solo222 7/18/07 10x10x2 f 158
48395 Dog abrek 7/19/07 50x30x2 f 109,146
48396 Relax abrek 7/19/07 40x15x2 f 82,190
48432 Cock-a-Doodle-Doo solo222 7/20/07 10x15x2 f 543
48471 Dinner is Served solo222 7/22/07 10x15x2 f 75
48693 Piano abrek 7/29/07 25x10x2 f 356
48694 Tractor solo222 7/29/07 15x10x2 f 192
48795 Sock solo222 8/1/07 10x10x2 f 102
48829 Crane halbehuitema 8/2/07 30x30x2 f 11,033
48884 Tired Eilleen 8/5/07 35x50x2 f 19,348
49048 Sewing Machine solo222 8/9/07 15x10x2 f 143
49248 I Spy Eilleen 8/17/07 25x10x2 f 830
49744 Bird House oko 8/29/07 50x50x2 f 2,431,693
49931 Cat arielxx 9/2/07 10x15x2 f 319
50020 Drinking Heracleum 9/4/07 10x15x2 f 114
50184 Manic Miner Heracleum 9/9/07 8x16x2 f 300
50210 Raccoon oko 9/10/07 45x45x2 f 36,522
50255 Toilet Paper oko 9/11/07 45x45x2 f 168,114
50335 After the Red Baron oko 9/12/07 40x40x2 f 519,772
50350 Penguin solo222 9/12/07 10x20x2 f 541
50450 Halloween Sideburn 9/16/07 50x45x2 f 309,767
50572 Pear solo222 9/18/07 10x15x2 f 603
50941 School Bus solo222 9/27/07 25x10x2 f 364
50942 Seahorse solo222 9/27/07 10x20x2 f 344
50947 Night Table solo222 9/28/07 10x20x2 f 763
51006 Palm tluktnie 9/30/07 30x30x2 f 54,990
51220 Lighthouse solo222 10/4/07 10x15x2 f 193
51816 Road solo222 10/17/07 15x10x2 f 148
52039 Joan of Arc - Riding a Horse Leonerep 10/22/07 50x47x2 f 358,987
52145 Avocado oko 10/24/07 40x25x2 f 124,435
52432 Little Devil oko 10/30/07 50x50x2 f 1,208,688
125823 Griddler Olympics: Synchronized Swimming steveo 7/26/12 25x5x2 f 29
138132 Griddler Wolverine steveo 9/22/13 10x11x2 f 394
156592 Balloons sap_m 5/21/15 15x15x2 f 453
163773 Andoy Crest Parsifalus 10/11/15 50x66x2 t 41,035
165615 Statue painter100 11/9/15 10x15x2 f 276
178960 Saturan Symbol rannyw 10/8/16 11x15x2 f 104
184118 Microphone jolam 5/14/17 8x17x2 f 279
184507 Brain hertseltsur 6/11/17 39x49x2 t 355,432
7771 Main Street Ra100 3/16/10 (23+17)x(17+20)x2 11,163
7775 Deer Shape Ra100 3/17/10 (7+6)x(6+11)x2 1,085
CopyrightThe Content in Griddlers Books is copyright protected. You may use the puzzles solely for your personal, nonexclusive and noncommercial use. We recommend that you fully read our Terms of Use.